createdAt,value
2018-07-30T00:01:01.956Z,98911.52
2018-07-30T00:03:30.112Z,98910.87
2018-07-30T00:05:58.207Z,98913.77
2018-07-30T00:08:26.619Z,98911.29
2018-07-30T00:10:54.719Z,98910.94
2018-07-30T00:13:22.853Z,98907.08
2018-07-30T00:15:50.812Z,98909.11
2018-07-30T00:18:18.806Z,98905.53
2018-07-30T00:20:47.008Z,98907.59
2018-07-30T00:23:15.102Z,98907.62
2018-07-30T00:25:43.190Z,98899.20
2018-07-30T00:28:11.285Z,98897.03
2018-07-30T00:30:39.427Z,98895.36
2018-07-30T00:33:07.487Z,98890.59
2018-07-30T00:35:35.721Z,98889.57
2018-07-30T00:38:03.804Z,98876.00
2018-07-30T00:40:31.778Z,98877.09
2018-07-30T00:42:59.828Z,98876.38
2018-07-30T00:45:28.093Z,98870.97
2018-07-30T00:47:56.275Z,98867.63
2018-07-30T00:50:24.585Z,98866.37
2018-07-30T00:52:52.743Z,98868.77
2018-07-30T00:55:20.682Z,98878.16
2018-07-30T00:57:48.614Z,98879.03
2018-07-30T01:00:16.905Z,98883.85
2018-07-30T01:02:44.923Z,98879.80
2018-07-30T01:05:13.031Z,98882.88
2018-07-30T01:07:41.461Z,98886.67
2018-07-30T01:10:09.388Z,98874.94
2018-07-30T01:12:37.290Z,98876.19
2018-07-30T01:15:05.337Z,98882.93
2018-07-30T01:17:33.169Z,98877.91
2018-07-30T01:20:01.084Z,98883.70
2018-07-30T01:22:29.151Z,98883.13
2018-07-30T01:24:57.081Z,98886.59
2018-07-30T01:27:25.012Z,98882.75
2018-07-30T01:29:53.166Z,98880.95
2018-07-30T01:32:21.193Z,98874.00
2018-07-30T01:34:49.019Z,98876.38
2018-07-30T01:37:17.225Z,98875.57
2018-07-30T01:39:45.148Z,98868.17
2018-07-30T01:42:13.171Z,98864.31
2018-07-30T01:44:41.220Z,98856.81
2018-07-30T01:47:09.248Z,98858.22
2018-07-30T01:49:37.188Z,98863.56
2018-07-30T01:52:06.027Z,98855.33
2018-07-30T01:54:34.041Z,98862.61
2018-07-30T01:57:02.079Z,98868.22
2018-07-30T01:59:29.976Z,98866.23
2018-07-30T02:01:58.041Z,98869.69
2018-07-30T02:04:26.122Z,98865.84
2018-07-30T02:06:54.286Z,98872.13
2018-07-30T02:09:22.343Z,98869.12
2018-07-30T02:11:50.364Z,98873.73
2018-07-30T02:14:18.884Z,98872.09
2018-07-30T02:16:46.883Z,98871.79
2018-07-30T02:19:14.900Z,98875.69
2018-07-30T02:21:43.279Z,98868.81
2018-07-30T02:24:11.284Z,98867.46
2018-07-30T02:26:39.286Z,98865.43
2018-07-30T02:29:07.383Z,98867.33
2018-07-30T02:31:35.269Z,98872.72
2018-07-30T02:34:03.333Z,98876.95
2018-07-30T02:36:31.439Z,98878.30
2018-07-30T02:38:59.510Z,98886.91
2018-07-30T02:41:27.518Z,98890.39
2018-07-30T02:43:55.496Z,98886.34
2018-07-30T02:46:23.503Z,98889.70
2018-07-30T02:48:51.696Z,98892.38
2018-07-30T02:51:19.960Z,98893.36
2018-07-30T02:53:47.867Z,98896.71
2018-07-30T02:56:15.686Z,98902.94
2018-07-30T02:58:43.668Z,98900.42
2018-07-30T03:02:41.047Z,98903.59
2018-07-30T03:05:09.317Z,98910.05
2018-07-30T03:07:37.468Z,98915.91
2018-07-30T03:10:06.023Z,98921.30
2018-07-30T03:12:34.152Z,98922.47
2018-07-30T03:15:02.169Z,98914.56
2018-07-30T03:17:30.115Z,98915.63
2018-07-30T03:19:58.158Z,98910.89
2018-07-30T03:22:26.107Z,98912.56
2018-07-30T03:24:53.992Z,98922.70
2018-07-30T03:27:21.915Z,98921.35
2018-07-30T03:29:49.888Z,98921.20
2018-07-30T03:32:17.996Z,98926.78
2018-07-30T03:34:45.939Z,98925.77
2018-07-30T03:37:13.788Z,98919.36
2018-07-30T03:39:41.986Z,98924.60
2018-07-30T03:42:09.976Z,98920.05
2018-07-30T03:44:37.930Z,98921.91
2018-07-30T03:47:06.208Z,98931.48
2018-07-30T03:49:34.089Z,98928.78
2018-07-30T03:52:02.178Z,98922.33
2018-07-30T03:54:30.252Z,98922.65
2018-07-30T03:56:58.504Z,98912.66
2018-07-30T03:59:26.428Z,98920.03
2018-07-30T04:01:54.365Z,98920.64
2018-07-30T04:04:22.794Z,98926.03
2018-07-30T04:06:50.700Z,98921.46
2018-07-30T04:09:18.684Z,98915.69
2018-07-30T04:11:46.883Z,98919.37
2018-07-30T04:14:14.684Z,98913.63
2018-07-30T04:16:47.263Z,98920.33
2018-07-30T04:19:15.572Z,98918.61
2018-07-30T04:21:43.511Z,98914.52
2018-07-30T04:24:11.505Z,98917.86
2018-07-30T04:26:39.430Z,98921.57
2018-07-30T04:29:07.543Z,98922.73
2018-07-30T04:31:35.689Z,98926.35
2018-07-30T04:34:03.828Z,98923.82
2018-07-30T04:36:31.616Z,98919.39
2018-07-30T04:38:59.683Z,98924.66
2018-07-30T04:41:27.724Z,98937.98
2018-07-30T04:43:55.775Z,98939.06
2018-07-30T04:46:24.972Z,98939.12
2018-07-30T04:48:52.986Z,98942.28
2018-07-30T04:51:20.918Z,98938.83
2018-07-30T04:53:48.817Z,98947.42
2018-07-30T04:56:16.884Z,98950.71
2018-07-30T04:58:44.832Z,98939.89
2018-07-30T05:01:12.859Z,98947.94
2018-07-30T05:03:40.842Z,98949.74
2018-07-30T05:06:08.706Z,98958.98
2018-07-30T05:08:36.538Z,98956.20
2018-07-30T05:11:04.522Z,98946.83
2018-07-30T05:13:32.562Z,98952.47
2018-07-30T05:16:00.683Z,98943.30
2018-07-30T05:18:28.649Z,98948.13
2018-07-30T05:20:56.467Z,98941.32
2018-07-30T05:23:24.642Z,98936.05
2018-07-30T05:25:52.742Z,98939.72
2018-07-30T05:28:20.730Z,98931.03
2018-07-30T05:30:48.677Z,98935.33
2018-07-30T05:33:16.661Z,98933.73
2018-07-30T05:35:44.616Z,98936.05
2018-07-30T05:38:12.675Z,98935.84
2018-07-30T05:40:40.671Z,98935.45
2018-07-30T05:43:08.512Z,98936.92
2018-07-30T05:45:36.341Z,98940.84
2018-07-30T05:48:04.220Z,98935.17
2018-07-30T05:50:32.033Z,98934.33
2018-07-30T05:53:00.008Z,98940.78
2018-07-30T05:55:27.818Z,98942.19
2018-07-30T05:57:55.617Z,98949.61
2018-07-30T06:00:23.534Z,98945.38
2018-07-30T06:02:51.719Z,98945.37
2018-07-30T06:05:19.653Z,98949.47
2018-07-30T06:07:47.506Z,98948.47
2018-07-30T06:10:15.297Z,98950.15
2018-07-30T06:12:43.222Z,98950.97
2018-07-30T06:15:11.160Z,98955.88
2018-07-30T06:17:38.939Z,98955.56
2018-07-30T06:20:09.015Z,98958.63
2018-07-30T06:22:37.482Z,98954.75
2018-07-30T06:25:05.599Z,98950.09
2018-07-30T06:27:33.557Z,98947.89
2018-07-30T06:30:01.400Z,98949.23
2018-07-30T06:32:29.349Z,98945.16
2018-07-30T06:34:57.108Z,98948.19
2018-07-30T06:37:24.950Z,98941.20
2018-07-30T06:39:53.199Z,98952.20
2018-07-30T06:42:21.004Z,98946.20
2018-07-30T06:44:48.865Z,98951.31
2018-07-30T06:47:16.765Z,98949.27
2018-07-30T06:49:44.639Z,98964.56
2018-07-30T06:52:12.609Z,98951.16
2018-07-30T06:54:40.478Z,98956.36
2018-07-30T06:57:08.340Z,98954.06
2018-07-30T06:59:36.258Z,98945.50
2018-07-30T07:02:04.259Z,98942.25
2018-07-30T07:04:32.205Z,98944.33
2018-07-30T07:07:00.066Z,98937.53
2018-07-30T07:09:27.952Z,98939.30
2018-07-30T07:11:55.779Z,98936.48
2018-07-30T07:14:23.668Z,98940.25
2018-07-30T07:16:51.546Z,98929.78
2018-07-30T07:19:19.466Z,98932.28
2018-07-30T07:21:47.371Z,98930.08
2018-07-30T07:24:15.317Z,98931.27
2018-07-30T07:26:43.184Z,98935.22
2018-07-30T07:29:11.091Z,98936.48
2018-07-30T07:31:39.004Z,98932.19
2018-07-30T07:34:06.832Z,98934.37
2018-07-30T07:36:34.781Z,98934.25
2018-07-30T07:39:02.740Z,98932.36
2018-07-30T07:41:30.635Z,98943.64
2018-07-30T07:43:58.707Z,98929.28
2018-07-30T07:46:26.459Z,98931.09
2018-07-30T07:48:54.324Z,98934.27
2018-07-30T07:51:22.265Z,98937.23
2018-07-30T07:53:50.108Z,98934.56
2018-07-30T07:56:18.052Z,98936.01
2018-07-30T07:58:45.977Z,98940.08
2018-07-30T08:01:13.888Z,98939.48
2018-07-30T08:03:41.852Z,98934.81
2018-07-30T08:06:09.873Z,98925.59
2018-07-30T08:08:37.617Z,98926.31
2018-07-30T08:11:05.620Z,98928.05
2018-07-30T08:13:34.552Z,98924.27
2018-07-30T08:16:02.511Z,98916.74
2018-07-30T08:18:30.540Z,98919.11
2018-07-30T08:20:58.503Z,98918.91
2018-07-30T08:23:26.287Z,98918.09
2018-07-30T08:25:54.079Z,98915.77
2018-07-30T08:28:22.644Z,98918.59
2018-07-30T08:30:50.541Z,98916.73
2018-07-30T08:33:18.358Z,98912.34
2018-07-30T08:35:46.225Z,98915.12
2018-07-30T08:38:14.250Z,98908.56
2018-07-30T08:40:42.087Z,98911.79
2018-07-30T08:43:10.468Z,98910.37
2018-07-30T08:45:38.392Z,98904.03
2018-07-30T08:48:06.177Z,98904.89
2018-07-30T08:50:34.226Z,98900.50
2018-07-30T08:53:02.096Z,98892.30
2018-07-30T08:55:29.990Z,98904.83
2018-07-30T08:57:57.870Z,98897.28
2018-07-30T09:00:25.775Z,98895.66
2018-07-30T09:02:53.633Z,98893.17
2018-07-30T09:05:21.936Z,98894.65
2018-07-30T09:07:49.884Z,98896.31
2018-07-30T09:10:17.744Z,98894.27
2018-07-30T09:12:45.740Z,98889.84
2018-07-30T09:15:13.551Z,98884.64
2018-07-30T09:17:41.410Z,98890.80
2018-07-30T09:20:09.566Z,98877.75
2018-07-30T09:22:37.364Z,98877.25
2018-07-30T09:25:05.291Z,98881.10
2018-07-30T09:27:34.979Z,98883.38
2018-07-30T09:30:04.416Z,98892.00
2018-07-30T09:32:32.580Z,98884.00
2018-07-30T09:35:00.416Z,98881.88
2018-07-30T09:37:28.289Z,98883.08
2018-07-30T09:39:56.158Z,98879.24
2018-07-30T09:42:24.437Z,98883.30
2018-07-30T09:44:52.348Z,98888.23
2018-07-30T09:47:20.347Z,98894.50
2018-07-30T09:49:48.345Z,98885.50
2018-07-30T09:52:16.219Z,98889.53
2018-07-30T09:54:44.167Z,98893.14
2018-07-30T09:57:12.175Z,98887.84
2018-07-30T09:59:40.150Z,98880.53
2018-07-30T10:02:08.111Z,98866.95
2018-07-30T10:04:35.964Z,98862.68
2018-07-30T10:07:03.868Z,98865.10
2018-07-30T10:09:32.317Z,98854.79
2018-07-30T10:12:00.428Z,98844.23
2018-07-30T10:14:28.249Z,98841.24
2018-07-30T10:16:56.057Z,98836.78
2018-07-30T10:19:24.435Z,98836.27
2018-07-30T10:21:53.757Z,98835.47
2018-07-30T10:24:21.625Z,98847.84
2018-07-30T10:26:50.006Z,98845.69
2018-07-30T10:29:18.258Z,98844.77
2018-07-30T10:31:46.002Z,98851.23
2018-07-30T10:34:13.886Z,98854.74
2018-07-30T10:36:41.760Z,98856.20
2018-07-30T10:39:09.662Z,98864.14
2018-07-30T10:41:37.688Z,98897.36
2018-07-30T10:44:18.544Z,98898.18
2018-07-30T10:46:48.322Z,98907.05
2018-07-30T10:49:19.269Z,98898.24
2018-07-30T10:51:55.424Z,98905.34
2018-07-30T10:54:26.142Z,98923.28
2018-07-30T10:56:54.258Z,98973.08
2018-07-30T10:59:22.054Z,98981.34
2018-07-30T11:01:49.849Z,98970.35
2018-07-30T11:04:17.785Z,98954.24
2018-07-30T11:06:45.611Z,98949.94
2018-07-30T11:09:13.804Z,98943.89
2018-07-30T11:11:47.540Z,98941.73
2018-07-30T11:14:20.189Z,98944.05
2018-07-30T11:16:48.481Z,98943.23
2018-07-30T11:19:18.521Z,98947.16
2018-07-30T11:21:46.452Z,98944.91
2018-07-30T11:24:15.865Z,98952.66
2018-07-30T11:26:43.837Z,98945.09
2018-07-30T11:29:11.749Z,98941.50
2018-07-30T11:31:40.077Z,98941.56
2018-07-30T11:34:08.112Z,98948.19
2018-07-30T11:36:36.263Z,98959.05
2018-07-30T11:39:06.856Z,98962.78
2018-07-30T11:41:34.753Z,98954.44
2018-07-30T11:44:02.613Z,98956.67
2018-07-30T11:46:31.949Z,98959.50
2018-07-30T11:48:59.781Z,98964.27
2018-07-30T11:51:27.664Z,98979.31
2018-07-30T11:53:55.740Z,98989.99
2018-07-30T11:56:23.551Z,98993.78
2018-07-30T11:58:51.662Z,99001.13
2018-07-30T12:01:19.692Z,99001.50
2018-07-30T12:03:47.513Z,98993.31
2018-07-30T12:06:15.443Z,98994.53
2018-07-30T12:08:43.880Z,98992.09
2018-07-30T12:11:12.857Z,98986.14
2018-07-30T12:13:40.835Z,98983.66
2018-07-30T12:16:08.875Z,98979.16
2018-07-30T12:18:36.921Z,98971.13
2018-07-30T12:21:04.631Z,98968.52
2018-07-30T12:23:36.744Z,98971.23
2018-07-30T12:26:04.739Z,98976.96
2018-07-30T12:28:32.562Z,98975.23
2018-07-30T12:31:00.540Z,98979.77
2018-07-30T12:33:28.314Z,98985.16
2018-07-30T12:35:56.383Z,98988.40
2018-07-30T12:38:24.980Z,98989.75
2018-07-30T12:40:52.966Z,98992.75
2018-07-30T12:43:21.872Z,98997.45
2018-07-30T12:45:49.861Z,99000.05
2018-07-30T12:48:17.633Z,99003.13
2018-07-30T12:50:45.482Z,99000.95
2018-07-30T12:53:13.962Z,98997.16
2018-07-30T12:55:41.812Z,99001.97
2018-07-30T12:58:10.240Z,99004.63
2018-07-30T13:00:38.611Z,98999.30
2018-07-30T13:03:06.526Z,98998.42
2018-07-30T13:05:34.503Z,99001.33
2018-07-30T13:08:02.421Z,99002.16
2018-07-30T13:10:30.326Z,98998.97
2018-07-30T13:12:58.265Z,98995.72
2018-07-30T13:15:26.134Z,98990.36
2018-07-30T13:17:54.053Z,98985.66
2018-07-30T13:20:21.836Z,98985.03
2018-07-30T13:22:49.832Z,98979.00
2018-07-30T13:25:17.664Z,98977.56
2018-07-30T13:27:45.552Z,98980.33
2018-07-30T13:30:13.488Z,98977.22
2018-07-30T13:32:41.413Z,98980.59
2018-07-30T13:35:09.414Z,98981.57
2018-07-30T13:37:37.390Z,98975.95
2018-07-30T13:40:05.478Z,98977.19
2018-07-30T13:42:33.367Z,98978.86
2018-07-30T13:45:01.467Z,98976.52
2018-07-30T13:47:29.328Z,98975.34
2018-07-30T13:49:57.175Z,98978.63
2018-07-30T13:52:25.177Z,98968.27
2018-07-30T13:54:53.229Z,98965.56
2018-07-30T13:57:21.044Z,98962.48
2018-07-30T13:59:48.954Z,98961.17
2018-07-30T14:02:16.784Z,98961.45
2018-07-30T14:04:44.696Z,98967.17
2018-07-30T14:07:12.672Z,98968.21
2018-07-30T14:09:40.532Z,98965.14
2018-07-30T14:12:08.526Z,98966.18
2018-07-30T14:14:36.524Z,98958.72
2018-07-30T14:17:04.353Z,98961.38
2018-07-30T14:19:32.238Z,98958.21
2018-07-30T14:22:00.171Z,98952.73
2018-07-30T14:24:28.072Z,98962.88
2018-07-30T14:26:55.995Z,98961.32
2018-07-30T14:29:24.168Z,98965.09
2018-07-30T14:31:52.078Z,98968.09
2018-07-30T14:34:19.911Z,98968.20
2018-07-30T14:36:48.186Z,98972.39
2018-07-30T14:39:16.041Z,98969.50
2018-07-30T14:41:43.832Z,98977.70
2018-07-30T14:44:12.748Z,98969.77
2018-07-30T14:46:40.649Z,98966.34
2018-07-30T14:49:08.543Z,98960.19
2018-07-30T14:51:36.477Z,98957.00
2018-07-30T14:54:04.504Z,98953.03
2018-07-30T14:56:32.346Z,98953.66
2018-07-30T14:59:00.175Z,98942.19
2018-07-30T15:01:28.201Z,98939.27
2018-07-30T15:03:56.003Z,98935.09
2018-07-30T15:06:24.107Z,98937.25
2018-07-30T15:08:51.943Z,98943.14
2018-07-30T15:11:19.991Z,98937.62
2018-07-30T15:13:47.989Z,98936.47
2018-07-30T15:16:15.879Z,98942.30
2018-07-30T15:18:43.715Z,98946.84
2018-07-30T15:21:11.622Z,98944.54
2018-07-30T15:23:39.530Z,98940.08
2018-07-30T15:26:07.391Z,98943.28
2018-07-30T15:28:35.426Z,98944.91
2018-07-30T15:31:03.201Z,98946.41
2018-07-30T15:33:31.076Z,98939.00
2018-07-30T15:35:59.333Z,98940.78
2018-07-30T15:38:27.124Z,98938.85
2018-07-30T15:40:55.029Z,98941.06
2018-07-30T15:43:22.954Z,98929.64
2018-07-30T15:45:50.838Z,98931.22
2018-07-30T15:48:19.018Z,98932.23
2018-07-30T15:50:47.164Z,98935.89
2018-07-30T15:53:15.437Z,98938.91
2018-07-30T15:55:43.305Z,98933.59
2018-07-30T15:58:11.256Z,98936.81
2018-07-30T16:00:39.076Z,98939.43
2018-07-30T16:03:06.844Z,98948.17
2018-07-30T16:05:34.733Z,98948.20
2018-07-30T16:08:02.628Z,98952.40
2018-07-30T16:10:30.460Z,98953.67
2018-07-30T16:12:58.239Z,98951.10
2018-07-30T16:15:26.058Z,98949.05
2018-07-30T16:17:53.865Z,98950.42
2018-07-30T16:20:21.687Z,98955.92
2018-07-30T16:22:49.515Z,98959.28
2018-07-30T16:25:17.271Z,98955.52
2018-07-30T16:27:45.260Z,98949.97
2018-07-30T16:30:13.058Z,98953.23
2018-07-30T16:32:40.880Z,98954.38
2018-07-30T16:35:08.981Z,98947.90
2018-07-30T16:37:36.861Z,98940.55
2018-07-30T16:40:05.340Z,98943.34
2018-07-30T16:42:33.487Z,98943.04
2018-07-30T16:45:01.456Z,98956.34
2018-07-30T16:47:29.219Z,98964.91
2018-07-30T16:49:57.097Z,98969.36
2018-07-30T16:52:24.899Z,98984.38
2018-07-30T16:54:52.687Z,98983.48
2018-07-30T16:57:21.500Z,98988.82
2018-07-30T16:59:49.355Z,98988.73
2018-07-30T17:02:17.231Z,98990.80
2018-07-30T17:04:45.504Z,98985.14
2018-07-30T17:07:13.380Z,98995.16
2018-07-30T17:09:41.259Z,99008.17
2018-07-30T17:12:09.240Z,99008.63
2018-07-30T17:14:37.139Z,99012.85
2018-07-30T17:17:05.018Z,99015.46
2018-07-30T17:19:33.281Z,99014.44
2018-07-30T17:22:01.203Z,99023.25
2018-07-30T17:24:29.042Z,99025.99
2018-07-30T17:26:56.832Z,99028.77
2018-07-30T17:29:24.693Z,99025.02
2018-07-30T17:31:52.452Z,99023.03
2018-07-30T17:34:20.523Z,99025.61
2018-07-30T17:36:48.416Z,99026.41
2018-07-30T17:39:16.207Z,99033.67
2018-07-30T17:41:44.492Z,99028.95
2018-07-30T17:44:12.222Z,99036.09
2018-07-30T17:46:40.142Z,99035.06
2018-07-30T17:49:08.510Z,99039.77
2018-07-30T17:51:36.398Z,99033.53
2018-07-30T17:54:04.374Z,99032.55
2018-07-30T17:56:32.457Z,99039.34
2018-07-30T17:59:00.435Z,99036.64
2018-07-30T18:01:28.318Z,99033.48
2018-07-30T18:03:56.250Z,99037.07
2018-07-30T18:06:24.196Z,99033.86
2018-07-30T18:08:52.198Z,99036.14
2018-07-30T18:11:20.172Z,99033.14
2018-07-30T18:15:17.521Z,99040.55
2018-07-30T18:17:45.455Z,99040.41
2018-07-30T18:20:13.535Z,99050.75
2018-07-30T18:22:41.595Z,99050.95
2018-07-30T18:25:10.142Z,99052.38
2018-07-30T18:27:38.150Z,99044.02
2018-07-30T18:30:06.704Z,99048.56
2018-07-30T18:32:34.648Z,99044.70
2018-07-30T18:35:02.683Z,99044.20
2018-07-30T18:37:30.720Z,99049.84
2018-07-30T18:39:58.676Z,99047.98
2018-07-30T18:42:26.559Z,99054.23
2018-07-30T18:44:55.116Z,99052.05
2018-07-30T18:47:23.204Z,99055.30
2018-07-30T18:49:51.103Z,99053.63
2018-07-30T18:52:18.883Z,99051.13
2018-07-30T18:54:47.154Z,99056.02
2018-07-30T19:03:59.573Z,99060.22
2018-07-30T19:06:27.455Z,99056.17
2018-07-30T19:08:55.376Z,99061.38
2018-07-30T19:11:23.423Z,99053.80
2018-07-30T19:15:20.868Z,99059.33
2018-07-30T19:17:48.955Z,99059.52
2018-07-30T19:20:16.912Z,99062.60
2018-07-30T19:22:44.806Z,99063.16
2018-07-30T19:25:13.080Z,99057.30
2018-07-30T19:27:41.238Z,99054.51
2018-07-30T19:30:09.271Z,99054.19
2018-07-30T19:32:37.558Z,99052.17
2018-07-30T19:35:05.547Z,99056.78
2018-07-30T19:37:33.638Z,99063.37
2018-07-30T19:40:01.749Z,99062.57
2018-07-30T19:42:29.812Z,99068.80
2018-07-30T19:44:57.828Z,99070.48
2018-07-30T19:47:25.956Z,99070.30
2018-07-30T19:49:54.068Z,99078.72
2018-07-30T19:52:21.969Z,99073.33
2018-07-30T19:54:49.832Z,99067.12
2018-07-30T19:57:17.998Z,99061.91
2018-07-30T19:59:45.938Z,99064.10
2018-07-30T20:02:13.900Z,99068.69
2018-07-30T20:04:41.953Z,99076.78
2018-07-30T20:07:10.021Z,99078.61
2018-07-30T20:09:37.834Z,99083.45
2018-07-30T20:12:05.760Z,99086.66
2018-07-30T20:14:33.752Z,99088.48
2018-07-30T20:17:01.712Z,99095.71
2018-07-30T20:19:29.900Z,99105.52
2018-07-30T20:21:57.852Z,99109.56
2018-07-30T20:24:25.826Z,99108.17
2018-07-30T20:26:53.871Z,99107.30
2018-07-30T20:29:21.857Z,99099.61
2018-07-30T20:31:50.009Z,99105.00
2018-07-30T20:34:17.934Z,99102.63
2018-07-30T20:36:45.839Z,99108.98
2018-07-30T20:39:13.923Z,99112.84
2018-07-30T20:48:26.482Z,99135.70
2018-07-30T20:50:54.389Z,99142.29
2018-07-30T20:53:22.366Z,99142.26
2018-07-30T20:55:50.709Z,99148.49
2018-07-30T20:58:18.719Z,99141.78
2018-07-30T21:00:46.708Z,99142.97
2018-07-30T21:03:15.043Z,99147.37
2018-07-30T21:05:43.844Z,99149.39
2018-07-30T21:08:13.873Z,99149.54
2018-07-30T21:10:43.068Z,99146.69
2018-07-30T21:13:11.352Z,99147.69
2018-07-30T21:15:39.159Z,99143.94
2018-07-30T21:18:07.647Z,99142.08
2018-07-30T21:20:35.661Z,99142.62
2018-07-30T21:23:03.804Z,99143.99
2018-07-30T21:25:31.866Z,99136.77
2018-07-30T21:28:00.344Z,99139.64
2018-07-30T21:30:34.606Z,99145.88
2018-07-30T21:33:02.498Z,99141.17
2018-07-30T21:35:31.482Z,99144.53
2018-07-30T21:37:59.964Z,99148.49
2018-07-30T21:40:33.542Z,99145.41
2018-07-30T21:43:01.648Z,99148.58
2018-07-30T21:45:29.707Z,99143.66
2018-07-30T21:47:57.688Z,99146.36
2018-07-30T21:50:27.646Z,99146.61
2018-07-30T21:52:55.638Z,99144.39
2018-07-30T21:55:23.635Z,99144.62
2018-07-30T21:57:52.088Z,99141.78
2018-07-30T22:00:22.739Z,99138.93
2018-07-30T22:02:51.033Z,99143.69
2018-07-30T22:05:19.363Z,99144.83
2018-07-30T22:07:47.426Z,99149.03
2018-07-30T22:10:15.530Z,99143.61
2018-07-30T22:12:43.581Z,99145.50
2018-07-30T22:15:11.575Z,99143.18
2018-07-30T22:17:39.625Z,99145.22
2018-07-30T22:20:07.620Z,99144.68
2018-07-30T22:22:36.403Z,99137.07
2018-07-30T22:25:04.434Z,99147.53
2018-07-30T22:27:32.360Z,99136.35
2018-07-30T22:30:00.722Z,99138.03
2018-07-30T22:32:28.678Z,99126.84
2018-07-30T22:34:56.817Z,99127.03
2018-07-30T22:37:24.823Z,99118.75
2018-07-30T22:39:52.829Z,99116.93
2018-07-30T22:42:21.131Z,99111.35
2018-07-30T22:44:48.903Z,99104.64
2018-07-30T22:47:16.975Z,99102.34
2018-07-30T22:49:45.093Z,99093.80
2018-07-30T22:52:12.988Z,99105.42
2018-07-30T22:54:40.868Z,99106.95
2018-07-30T22:57:08.895Z,99112.67
2018-07-30T22:59:36.782Z,99105.42
2018-07-30T23:02:04.696Z,99101.43
2018-07-30T23:04:32.831Z,99097.53
2018-07-30T23:07:00.706Z,99093.19
2018-07-30T23:09:28.656Z,99097.39
2018-07-30T23:11:56.560Z,99092.20
2018-07-30T23:14:24.578Z,99096.07
2018-07-30T23:16:52.470Z,99097.59
2018-07-30T23:19:20.591Z,99093.75
2018-07-30T23:21:48.611Z,99094.58
2018-07-30T23:24:16.648Z,99099.32
2018-07-30T23:26:44.450Z,99094.08
2018-07-30T23:29:12.513Z,99096.94
2018-07-30T23:31:40.397Z,99101.79
2018-07-30T23:34:08.438Z,99108.00
2018-07-30T23:36:36.369Z,99110.73
2018-07-30T23:39:07.308Z,99107.36
2018-07-30T23:41:35.397Z,99101.81
2018-07-30T23:44:03.359Z,99099.45
2018-07-30T23:46:31.359Z,99096.23
2018-07-30T23:48:59.896Z,99095.72
2018-07-30T23:51:27.955Z,99099.79
2018-07-30T23:53:56.069Z,99100.80
2018-07-30T23:56:24.032Z,99102.17
2018-07-30T23:58:52.272Z,99095.75
